createdAt,value
2018-07-30T00:01:58.577Z,22.00
2018-07-30T00:04:29.260Z,22.00
2018-07-30T00:07:12.428Z,21.90
2018-07-30T00:09:42.430Z,21.80
2018-07-30T00:12:12.458Z,21.80
2018-07-30T00:14:42.665Z,21.80
2018-07-30T00:17:12.120Z,21.80
2018-07-30T00:19:42.007Z,21.80
2018-07-30T00:22:11.880Z,21.70
2018-07-30T00:24:41.772Z,21.70
2018-07-30T00:27:11.610Z,21.70
2018-07-30T00:29:41.856Z,21.70
2018-07-30T00:32:11.617Z,21.70
2018-07-30T00:34:42.013Z,21.60
2018-07-30T00:37:12.631Z,21.60
2018-07-30T00:39:42.626Z,21.50
2018-07-30T00:44:42.528Z,21.50
2018-07-30T00:47:11.988Z,21.40
2018-07-30T00:49:42.397Z,21.40
2018-07-30T00:52:12.174Z,21.30
2018-07-30T00:54:42.463Z,21.30
2018-07-30T00:57:12.491Z,21.20
2018-07-30T00:59:42.975Z,21.20
2018-07-30T01:02:13.317Z,21.20
2018-07-30T01:04:43.112Z,21.10
2018-07-30T01:07:13.885Z,21.10
2018-07-30T01:09:43.434Z,21.10
2018-07-30T01:12:13.188Z,21.00
2018-07-30T01:14:43.010Z,21.00
2018-07-30T01:17:12.468Z,21.00
2018-07-30T01:19:42.643Z,20.90
2018-07-30T01:22:13.188Z,20.90
2018-07-30T01:24:43.386Z,20.90
2018-07-30T01:27:13.596Z,20.80
2018-07-30T01:29:44.210Z,20.80
2018-07-30T01:32:13.981Z,20.70
2018-07-30T01:34:43.463Z,20.70
2018-07-30T01:37:13.538Z,20.70
2018-07-30T01:39:44.326Z,20.70
2018-07-30T01:42:15.309Z,20.70
2018-07-30T01:44:45.693Z,20.70
2018-07-30T01:47:22.628Z,20.70
2018-07-30T01:49:53.425Z,20.60
2018-07-30T01:52:23.458Z,20.60
2018-07-30T01:54:53.650Z,20.60
2018-07-30T01:59:51.567Z,20.60
2018-07-30T02:02:22.176Z,20.50
2018-07-30T02:04:51.682Z,20.50
2018-07-30T02:07:21.556Z,20.50
2018-07-30T02:12:20.800Z,20.50
2018-07-30T02:14:50.580Z,20.50
2018-07-30T02:17:20.768Z,20.50
2018-07-30T02:19:50.480Z,20.50
2018-07-30T02:22:19.703Z,20.50
2018-07-30T02:24:50.675Z,20.50
2018-07-30T02:27:20.935Z,20.40
2018-07-30T02:29:50.901Z,20.40
2018-07-30T02:32:20.925Z,20.40
2018-07-30T02:34:51.376Z,20.40
2018-07-30T02:37:21.686Z,20.40
2018-07-30T02:39:52.076Z,20.40
2018-07-30T02:42:21.824Z,20.40
2018-07-30T02:44:52.372Z,20.40
2018-07-30T02:47:22.577Z,20.40
2018-07-30T02:49:52.715Z,20.40
2018-07-30T02:52:22.460Z,20.40
2018-07-30T02:54:51.780Z,20.40
2018-07-30T02:59:51.054Z,20.40
2018-07-30T03:02:21.405Z,20.40
2018-07-30T03:04:51.768Z,20.40
2018-07-30T03:07:22.009Z,20.40
2018-07-30T03:09:51.299Z,20.30
2018-07-30T03:12:21.286Z,20.40
2018-07-30T03:14:51.555Z,20.40
2018-07-30T03:19:51.336Z,20.40
2018-07-30T03:22:21.424Z,20.40
2018-07-30T03:24:52.768Z,20.40
2018-07-30T03:27:22.529Z,20.40
2018-07-30T03:29:52.912Z,20.40
2018-07-30T03:32:22.220Z,20.40
2018-07-30T03:34:52.620Z,20.40
2018-07-30T03:37:22.605Z,20.40
2018-07-30T03:39:52.811Z,20.40
2018-07-30T03:42:22.753Z,20.40
2018-07-30T03:44:52.541Z,20.40
2018-07-30T03:47:22.267Z,20.40
2018-07-30T03:49:52.448Z,20.40
2018-07-30T03:52:22.206Z,20.40
2018-07-30T03:54:52.633Z,20.50
2018-07-30T03:57:22.949Z,20.50
2018-07-30T03:59:52.645Z,20.50
2018-07-30T04:02:22.710Z,20.50
2018-07-30T04:04:53.319Z,20.60
2018-07-30T04:07:22.691Z,20.60
2018-07-30T04:09:54.552Z,20.70
2018-07-30T04:12:24.543Z,20.70
2018-07-30T04:14:54.531Z,20.80
2018-07-30T04:17:24.878Z,20.80
2018-07-30T04:19:55.341Z,20.90
2018-07-30T04:22:25.215Z,21.00
2018-07-30T04:24:55.523Z,21.10
2018-07-30T04:27:25.385Z,21.20
2018-07-30T04:29:55.297Z,21.40
2018-07-30T04:34:54.444Z,21.60
2018-07-30T04:37:24.319Z,21.80
2018-07-30T04:39:53.579Z,21.90
2018-07-30T04:42:23.348Z,22.00
2018-07-30T04:44:53.254Z,22.00
2018-07-30T04:47:23.235Z,22.10
2018-07-30T04:49:53.584Z,22.20
2018-07-30T04:52:23.256Z,22.30
2018-07-30T04:54:53.512Z,22.40
2018-07-30T04:57:23.490Z,22.50
2018-07-30T04:59:53.079Z,22.70
2018-07-30T05:02:22.651Z,22.80
2018-07-30T05:04:52.218Z,23.00
2018-07-30T05:07:22.568Z,23.10
2018-07-30T05:09:52.658Z,23.20
2018-07-30T05:12:22.953Z,23.40
2018-07-30T05:14:52.628Z,23.50
2018-07-30T05:17:22.802Z,23.60
2018-07-30T05:19:52.153Z,23.70
2018-07-30T05:22:21.961Z,23.80
2018-07-30T05:24:53.101Z,24.00
2018-07-30T05:27:23.372Z,24.10
2018-07-30T05:29:54.179Z,24.20
2018-07-30T05:32:26.359Z,24.30
2018-07-30T05:34:57.277Z,24.60
2018-07-30T05:37:27.722Z,24.70
2018-07-30T05:42:28.336Z,24.80
2018-07-30T05:44:59.566Z,24.80
2018-07-30T05:47:30.661Z,24.90
2018-07-30T05:50:00.897Z,24.90
2018-07-30T05:52:31.489Z,25.00
2018-07-30T05:55:02.174Z,25.20
2018-07-30T05:57:33.084Z,25.40
2018-07-30T06:00:04.342Z,25.50
2018-07-30T06:04:04.136Z,25.70
2018-07-30T06:06:34.927Z,25.90
2018-07-30T06:09:12.267Z,26.20
2018-07-30T06:11:44.225Z,26.10
2018-07-30T06:14:14.928Z,26.00
2018-07-30T06:16:45.633Z,26.00
2018-07-30T06:21:48.458Z,25.80
2018-07-30T06:24:21.442Z,25.80
2018-07-30T06:26:52.741Z,25.80
2018-07-30T06:29:31.989Z,25.80
2018-07-30T06:32:02.205Z,25.80
2018-07-30T06:34:32.953Z,25.70
2018-07-30T06:37:03.534Z,25.70
2018-07-30T06:39:33.841Z,25.70
2018-07-30T06:42:04.892Z,25.80
2018-07-30T06:44:35.065Z,25.80
2018-07-30T06:47:05.444Z,25.80
2018-07-30T06:49:42.203Z,25.90
2018-07-30T06:52:13.495Z,26.00
2018-07-30T06:54:43.364Z,26.10
2018-07-30T06:57:13.366Z,26.30
2018-07-30T06:59:43.453Z,26.50
2018-07-30T07:02:12.834Z,26.60
2018-07-30T07:04:43.263Z,26.70
2018-07-30T07:07:14.137Z,26.80
2018-07-30T07:09:48.635Z,26.90
2018-07-30T07:12:19.690Z,27.10
2018-07-30T07:14:49.555Z,27.30
2018-07-30T07:17:18.914Z,27.10
2018-07-30T07:19:49.625Z,27.20
2018-07-30T07:22:19.762Z,27.10
2018-07-30T07:24:49.718Z,27.10
2018-07-30T07:27:18.701Z,27.10
2018-07-30T07:29:48.236Z,27.00
2018-07-30T07:32:18.741Z,27.00
2018-07-30T07:34:48.941Z,27.20
2018-07-30T07:37:19.240Z,27.30
2018-07-30T07:39:51.235Z,27.40
2018-07-30T07:42:21.311Z,27.50
2018-07-30T07:44:51.308Z,27.70
2018-07-30T07:47:20.864Z,27.70
2018-07-30T07:49:53.051Z,27.70
2018-07-30T07:52:23.225Z,27.70
2018-07-30T07:54:53.639Z,27.80
2018-07-30T07:57:24.513Z,27.80
2018-07-30T07:59:54.747Z,27.90
2018-07-30T08:02:23.985Z,27.80
2018-07-30T08:04:54.177Z,27.70
2018-07-30T08:07:24.642Z,27.50
2018-07-30T08:10:01.985Z,27.50
2018-07-30T08:12:32.247Z,27.50
2018-07-30T08:15:02.232Z,27.50
2018-07-30T08:17:32.112Z,27.60
2018-07-30T08:20:02.208Z,27.70
2018-07-30T08:22:31.993Z,27.80
2018-07-30T08:25:02.089Z,27.80
2018-07-30T08:27:31.978Z,27.70
2018-07-30T08:30:01.761Z,27.80
2018-07-30T08:32:31.976Z,28.00
2018-07-30T08:35:01.735Z,28.10
2018-07-30T08:37:31.184Z,28.10
2018-07-30T08:40:01.251Z,28.00
2018-07-30T08:42:31.270Z,28.00
2018-07-30T08:45:00.952Z,28.20
2018-07-30T08:47:30.962Z,28.30
2018-07-30T08:50:01.340Z,28.40
2018-07-30T08:52:31.224Z,28.40
2018-07-30T08:55:01.212Z,28.40
2018-07-30T08:57:30.695Z,28.50
2018-07-30T09:00:00.779Z,28.60
2018-07-30T09:02:29.726Z,28.50
2018-07-30T09:05:00.001Z,28.60
2018-07-30T09:07:29.560Z,28.60
2018-07-30T09:09:58.755Z,28.70
2018-07-30T09:12:28.468Z,28.60
2018-07-30T09:14:57.763Z,28.60
2018-07-30T09:17:28.352Z,28.60
2018-07-30T09:19:57.966Z,28.60
2018-07-30T09:22:27.896Z,28.70
2018-07-30T09:24:58.367Z,28.70
2018-07-30T09:27:28.583Z,28.90
2018-07-30T09:29:57.814Z,28.90
2018-07-30T09:32:27.771Z,28.70
2018-07-30T09:34:57.751Z,28.90
2018-07-30T09:37:27.047Z,29.00
2018-07-30T09:42:26.341Z,29.00
2018-07-30T09:44:56.271Z,29.20
2018-07-30T09:49:55.687Z,29.00
2018-07-30T09:52:26.552Z,29.10
2018-07-30T09:54:56.608Z,29.30
2018-07-30T09:57:27.271Z,29.30
2018-07-30T09:59:57.502Z,29.50
2018-07-30T10:02:27.791Z,29.70
2018-07-30T10:04:57.874Z,29.80
2018-07-30T10:07:29.618Z,29.80
2018-07-30T10:10:07.687Z,29.90
2018-07-30T10:12:36.959Z,29.90
2018-07-30T10:15:06.691Z,29.90
2018-07-30T10:17:38.399Z,29.80
2018-07-30T10:20:08.669Z,29.80
2018-07-30T10:22:38.875Z,29.80
2018-07-30T10:25:09.729Z,29.80
2018-07-30T10:27:40.611Z,29.80
2018-07-30T10:30:09.543Z,29.80
2018-07-30T10:32:39.663Z,29.90
2018-07-30T10:35:08.964Z,30.10
2018-07-30T10:37:38.687Z,30.30
2018-07-30T10:40:09.407Z,30.30
2018-07-30T10:42:40.853Z,30.10
2018-07-30T10:45:10.624Z,29.90
2018-07-30T10:47:39.779Z,29.90
2018-07-30T10:50:09.660Z,29.80
2018-07-30T10:52:40.747Z,29.60
2018-07-30T10:55:11.640Z,29.70
2018-07-30T10:57:41.722Z,30.00
2018-07-30T11:00:11.618Z,30.20
2018-07-30T11:02:42.038Z,30.20
2018-07-30T11:05:12.424Z,30.40
2018-07-30T11:07:42.977Z,30.50
2018-07-30T11:10:12.714Z,30.60
2018-07-30T11:12:42.372Z,30.70
2018-07-30T11:15:17.163Z,30.70
2018-07-30T11:17:46.667Z,30.70
2018-07-30T11:20:16.224Z,30.70
2018-07-30T11:22:47.371Z,30.80
2018-07-30T11:25:18.134Z,30.80
2018-07-30T11:27:47.765Z,30.60
2018-07-30T11:30:17.871Z,30.60
2018-07-30T11:32:47.949Z,30.50
2018-07-30T11:35:17.395Z,30.50
2018-07-30T11:37:47.387Z,30.60
2018-07-30T11:40:18.059Z,30.60
2018-07-30T11:42:47.412Z,30.50
2018-07-30T11:45:16.847Z,30.20
2018-07-30T11:47:46.754Z,30.20
2018-07-30T11:50:16.455Z,30.30
2018-07-30T11:55:15.447Z,30.40
2018-07-30T11:57:45.439Z,30.40
2018-07-30T12:00:15.727Z,30.30
2018-07-30T12:05:15.092Z,30.20
2018-07-30T12:07:44.566Z,30.20
2018-07-30T12:10:14.755Z,30.30
2018-07-30T12:12:46.724Z,30.40
2018-07-30T12:17:44.963Z,30.30
2018-07-30T12:22:44.816Z,30.40
2018-07-30T12:25:14.683Z,30.50
2018-07-30T12:27:44.985Z,30.60
2018-07-30T12:30:14.998Z,30.60
2018-07-30T12:32:44.964Z,30.70
2018-07-30T12:35:14.791Z,30.80
2018-07-30T12:37:44.950Z,30.80
2018-07-30T12:40:15.320Z,30.60
2018-07-30T12:42:45.708Z,30.60
2018-07-30T12:45:19.930Z,30.40
2018-07-30T12:47:50.530Z,30.20
2018-07-30T12:50:26.441Z,30.00
2018-07-30T12:52:55.895Z,29.80
2018-07-30T12:55:25.601Z,29.70
2018-07-30T12:57:55.820Z,29.70
2018-07-30T13:00:26.019Z,29.70
2018-07-30T13:02:55.874Z,29.80
2018-07-30T13:05:24.991Z,29.90
2018-07-30T13:07:55.048Z,29.90
2018-07-30T13:10:24.937Z,29.80
2018-07-30T13:12:54.512Z,29.70
2018-07-30T13:15:23.963Z,29.60
2018-07-30T13:17:53.747Z,29.60
2018-07-30T13:20:23.841Z,29.60
2018-07-30T13:22:53.307Z,29.60
2018-07-30T13:25:24.860Z,29.60
2018-07-30T13:27:54.488Z,29.50
2018-07-30T13:30:24.523Z,29.50
2018-07-30T13:32:55.132Z,29.70
2018-07-30T13:35:25.232Z,29.80
2018-07-30T13:40:24.126Z,29.90
2018-07-30T13:42:54.155Z,30.00
2018-07-30T13:45:24.276Z,30.00
2018-07-30T13:47:54.647Z,29.80
2018-07-30T13:50:24.255Z,29.80
2018-07-30T13:52:54.147Z,29.80
2018-07-30T13:55:24.273Z,29.70
2018-07-30T13:57:54.610Z,29.80
2018-07-30T14:02:53.347Z,29.70
2018-07-30T14:05:22.630Z,29.70
2018-07-30T14:07:52.294Z,29.70
2018-07-30T14:10:23.100Z,29.80
2018-07-30T14:15:23.100Z,29.70
2018-07-30T14:17:52.850Z,29.70
2018-07-30T14:20:22.560Z,29.60
2018-07-30T14:22:52.469Z,29.50
2018-07-30T14:25:22.487Z,29.30
2018-07-30T14:27:53.023Z,29.20
2018-07-30T14:30:22.066Z,29.10
2018-07-30T14:32:52.151Z,29.10
2018-07-30T14:35:21.945Z,29.20
2018-07-30T14:37:51.240Z,29.30
2018-07-30T14:40:21.604Z,29.30
2018-07-30T14:45:21.555Z,29.40
2018-07-30T14:47:51.700Z,29.50
2018-07-30T14:50:21.659Z,29.50
2018-07-30T14:52:51.442Z,29.60
2018-07-30T14:55:22.006Z,29.60
2018-07-30T14:57:53.091Z,29.70
2018-07-30T15:00:24.270Z,29.90
2018-07-30T15:02:54.083Z,29.90
2018-07-30T15:05:23.371Z,29.90
2018-07-30T15:07:53.152Z,29.80
2018-07-30T15:10:24.170Z,29.50
2018-07-30T15:12:54.070Z,29.10
2018-07-30T15:15:24.585Z,28.70
2018-07-30T15:17:54.687Z,28.50
2018-07-30T15:20:25.051Z,28.40
2018-07-30T15:22:54.057Z,28.40
2018-07-30T15:25:23.803Z,28.40
2018-07-30T15:27:53.165Z,28.40
2018-07-30T15:30:23.133Z,28.50
2018-07-30T15:32:53.028Z,28.50
2018-07-30T15:37:52.313Z,28.40
2018-07-30T15:40:22.022Z,28.40
2018-07-30T15:42:51.973Z,28.40
2018-07-30T15:45:22.372Z,28.30
2018-07-30T15:47:53.403Z,28.30
2018-07-30T15:50:23.979Z,28.30
2018-07-30T15:52:53.658Z,28.30
2018-07-30T15:55:23.084Z,28.30
2018-07-30T15:57:52.870Z,28.20
2018-07-30T16:00:22.595Z,28.20
2018-07-30T16:02:52.800Z,28.20
2018-07-30T16:05:23.243Z,28.20
2018-07-30T16:10:24.144Z,28.00
2018-07-30T16:12:53.941Z,27.90
2018-07-30T16:15:24.373Z,27.90
2018-07-30T16:17:54.399Z,27.90
2018-07-30T16:20:24.421Z,27.90
2018-07-30T16:22:54.695Z,27.90
2018-07-30T16:25:25.110Z,27.80
2018-07-30T16:30:24.812Z,27.80
2018-07-30T16:32:54.387Z,27.70
2018-07-30T16:35:23.827Z,27.70
2018-07-30T16:37:53.163Z,27.70
2018-07-30T16:40:23.159Z,27.70
2018-07-30T16:42:53.249Z,27.80
2018-07-30T16:45:22.931Z,27.70
2018-07-30T16:47:52.600Z,27.60
2018-07-30T16:50:21.652Z,27.60
2018-07-30T16:52:52.157Z,27.60
2018-07-30T16:55:21.623Z,27.50
2018-07-30T16:57:52.057Z,27.40
2018-07-30T17:00:23.217Z,27.30
2018-07-30T17:02:52.509Z,27.30
2018-07-30T17:05:21.534Z,27.20
2018-07-30T17:07:52.102Z,27.10
2018-07-30T17:10:22.529Z,27.10
2018-07-30T17:12:52.280Z,27.00
2018-07-30T17:17:52.029Z,27.00
2018-07-30T17:20:22.038Z,26.90
2018-07-30T17:22:51.820Z,26.90
2018-07-30T17:25:22.216Z,26.90
2018-07-30T17:29:21.621Z,26.80
2018-07-30T17:31:55.172Z,26.80
2018-07-30T17:34:25.314Z,26.80
2018-07-30T17:36:54.328Z,26.80
2018-07-30T17:39:23.389Z,26.70
2018-07-30T17:41:52.585Z,26.70
2018-07-30T17:44:23.127Z,26.70
2018-07-30T17:46:53.330Z,26.60
2018-07-30T17:49:22.849Z,26.50
2018-07-30T17:51:53.924Z,26.50
2018-07-30T17:54:23.810Z,26.40
2018-07-30T17:56:53.831Z,26.40
2018-07-30T17:59:23.130Z,26.20
2018-07-30T18:01:52.700Z,26.10
2018-07-30T18:04:22.093Z,26.10
2018-07-30T18:06:51.671Z,26.00
2018-07-30T18:09:21.286Z,25.90
2018-07-30T18:11:50.593Z,25.90
2018-07-30T18:14:19.869Z,25.80
2018-07-30T18:16:50.260Z,25.80
2018-07-30T18:21:47.944Z,25.70
2018-07-30T18:24:17.035Z,25.70
2018-07-30T18:26:47.695Z,25.60
2018-07-30T18:29:17.844Z,25.60
2018-07-30T18:31:46.942Z,25.50
2018-07-30T18:34:16.824Z,25.50
2018-07-30T18:36:46.879Z,25.40
2018-07-30T18:39:17.241Z,25.40
2018-07-30T18:41:47.444Z,25.30
2018-07-30T18:44:17.773Z,25.20
2018-07-30T18:46:47.723Z,25.10
2018-07-30T18:49:18.789Z,25.00
2018-07-30T18:51:50.643Z,24.90
2018-07-30T18:54:21.992Z,24.80
2018-07-30T18:56:52.321Z,24.70
2018-07-30T18:59:22.894Z,24.60
2018-07-30T19:01:53.081Z,24.50
2018-07-30T19:04:23.041Z,24.50
2018-07-30T19:06:53.896Z,24.40
2018-07-30T19:09:24.135Z,24.40
2018-07-30T19:11:53.648Z,24.40
2018-07-30T19:14:24.069Z,24.30
2018-07-30T19:16:55.058Z,24.30
2018-07-30T19:19:25.395Z,24.30
2018-07-30T19:21:55.115Z,24.30
2018-07-30T19:24:24.789Z,24.30
2018-07-30T19:26:55.796Z,24.20
2018-07-30T19:29:25.781Z,24.20
2018-07-30T19:31:55.632Z,24.10
2018-07-30T19:34:24.469Z,24.10
2018-07-30T19:36:53.409Z,24.10
2018-07-30T19:39:23.020Z,24.10
2018-07-30T19:41:53.436Z,24.10
2018-07-30T19:44:22.381Z,24.10
2018-07-30T19:46:52.371Z,24.10
2018-07-30T19:49:22.773Z,24.10
2018-07-30T19:51:53.277Z,24.00
2018-07-30T19:54:22.606Z,24.00
2018-07-30T19:56:52.980Z,23.80
2018-07-30T19:59:22.824Z,23.70
2018-07-30T20:01:53.152Z,23.60
2018-07-30T20:04:23.808Z,23.50
2018-07-30T20:06:54.096Z,23.50
2018-07-30T20:09:23.937Z,23.50
2018-07-30T20:11:54.042Z,23.40
2018-07-30T20:14:23.388Z,23.40
2018-07-30T20:16:53.989Z,23.40
2018-07-30T20:19:24.301Z,23.40
2018-07-30T20:21:54.476Z,23.40
2018-07-30T20:24:24.572Z,23.30
2018-07-30T20:26:55.837Z,23.30
2018-07-30T20:29:25.927Z,23.30
2018-07-30T20:31:56.370Z,23.30
2018-07-30T20:34:28.260Z,23.30
2018-07-30T20:36:57.567Z,23.30
2018-07-30T20:39:27.765Z,23.30
2018-07-30T20:41:57.845Z,23.30
2018-07-30T20:44:27.795Z,23.30
2018-07-30T20:46:57.941Z,23.30
2018-07-30T20:49:27.937Z,23.30
2018-07-30T20:51:57.060Z,23.20
2018-07-30T20:54:26.093Z,23.20
2018-07-30T20:56:55.612Z,23.20
2018-07-30T21:04:23.948Z,23.20
2018-07-30T21:06:53.829Z,23.20
2018-07-30T21:09:23.837Z,23.30
2018-07-30T21:14:23.018Z,23.20
2018-07-30T21:16:52.307Z,23.20
2018-07-30T21:19:22.051Z,23.20
2018-07-30T21:21:51.320Z,23.10
2018-07-30T21:26:50.661Z,23.10
2018-07-30T21:29:20.135Z,23.00
2018-07-30T21:31:49.483Z,23.10
2018-07-30T21:34:19.582Z,23.00
2018-07-30T21:36:49.588Z,23.00
2018-07-30T21:39:18.646Z,23.00
2018-07-30T21:41:49.357Z,23.00
2018-07-30T21:44:19.728Z,23.00
2018-07-30T21:46:49.454Z,23.00
2018-07-30T21:49:19.644Z,23.00
2018-07-30T21:51:49.703Z,23.00
2018-07-30T21:54:19.463Z,23.00
2018-07-30T21:56:49.566Z,23.00
2018-07-30T21:59:19.822Z,23.00
2018-07-30T22:04:18.820Z,22.90
2018-07-30T22:06:49.534Z,22.90
2018-07-30T22:09:19.525Z,22.90
2018-07-30T22:11:49.622Z,22.90
2018-07-30T22:14:19.458Z,22.90
2018-07-30T22:16:49.229Z,22.90
2018-07-30T22:19:18.989Z,23.00
2018-07-30T22:24:18.428Z,22.90
2018-07-30T22:26:48.518Z,22.90
2018-07-30T22:29:19.025Z,22.90
2018-07-30T22:31:48.705Z,22.90
2018-07-30T22:34:18.354Z,22.90
2018-07-30T22:36:48.484Z,22.90
2018-07-30T22:39:18.656Z,23.00
2018-07-30T22:41:48.694Z,23.00
2018-07-30T22:44:18.372Z,23.00
2018-07-30T22:46:48.100Z,23.00
2018-07-30T22:49:18.422Z,23.00
2018-07-30T22:51:47.996Z,23.00
2018-07-30T22:54:18.044Z,23.00
2018-07-30T22:59:17.471Z,23.00
2018-07-30T23:01:47.551Z,23.00
2018-07-30T23:04:17.507Z,23.10
2018-07-30T23:09:16.858Z,23.10
2018-07-30T23:11:47.197Z,23.10
2018-07-30T23:14:17.765Z,23.10
2018-07-30T23:16:47.683Z,23.20
2018-07-30T23:19:17.376Z,23.20
2018-07-30T23:21:46.283Z,23.10
2018-07-30T23:24:16.056Z,23.10
2018-07-30T23:26:46.524Z,23.20
2018-07-30T23:29:16.328Z,23.20
2018-07-30T23:31:45.928Z,23.20
2018-07-30T23:34:16.444Z,23.30
2018-07-30T23:36:46.654Z,23.30
2018-07-30T23:39:16.932Z,23.20
2018-07-30T23:44:16.978Z,23.20
2018-07-30T23:46:46.298Z,23.10
2018-07-30T23:49:15.631Z,23.10
2018-07-30T23:51:45.624Z,23.00
2018-07-30T23:56:45.439Z,22.90
2018-07-30T23:59:15.711Z,22.80
